Air Navigation Services of Czech Republic
Airport: LKLN Updated:  04.06.2020 09:57:24  UTC
 METAR LKLN 04.06. 10:00 ...
METAR LKLN 041000Z AUTO 27003KT 240V310 9999 -RA OVC079 16/12 Q0998=